sensor_id;sensor_type;location;lat;lon;timestamp;P1;durP1;ratioP1;P2;durP2;ratioP2
55328;SDS011;41205;44.264;19.884;2023-08-12T00:00:08;5.28;;;2.88;;
55328;SDS011;41205;44.264;19.884;2023-08-12T00:02:41;4.68;;;2.95;;
55328;SDS011;41205;44.264;19.884;2023-08-12T00:05:10;6.85;;;3.40;;
55328;SDS011;41205;44.264;19.884;2023-08-12T00:07:36;4.15;;;3.03;;
55328;SDS011;41205;44.264;19.884;2023-08-12T00:10:02;3.85;;;2.90;;
55328;SDS011;41205;44.264;19.884;2023-08-12T00:12:30;5.22;;;3.92;;
55328;SDS011;41205;44.264;19.884;2023-08-12T00:14:57;5.63;;;3.55;;
55328;SDS011;41205;44.264;19.884;2023-08-12T00:17:23;4.95;;;2.80;;
55328;SDS011;41205;44.264;19.884;2023-08-12T00:19:48;5.80;;;3.25;;
55328;SDS011;41205;44.264;19.884;2023-08-12T00:22:14;4.43;;;2.83;;
55328;SDS011;41205;44.264;19.884;2023-08-12T00:24:40;4.90;;;2.92;;
55328;SDS011;41205;44.264;19.884;2023-08-12T00:27:06;4.30;;;3.10;;
55328;SDS011;41205;44.264;19.884;2023-08-12T00:29:33;4.35;;;3.33;;
55328;SDS011;41205;44.264;19.884;2023-08-12T00:31:59;4.72;;;3.58;;
55328;SDS011;41205;44.264;19.884;2023-08-12T00:34:25;4.97;;;3.47;;
55328;SDS011;41205;44.264;19.884;2023-08-12T00:36:50;6.28;;;3.50;;
55328;SDS011;41205;44.264;19.884;2023-08-12T00:39:16;6.05;;;3.55;;
55328;SDS011;41205;44.264;19.884;2023-08-12T00:41:42;6.10;;;3.80;;
55328;SDS011;41205;44.264;19.884;2023-08-12T00:44:07;7.18;;;3.40;;
55328;SDS011;41205;44.264;19.884;2023-08-12T00:46:34;5.40;;;3.05;;
55328;SDS011;41205;44.264;19.884;2023-08-12T00:49:01;3.67;;;2.75;;
55328;SDS011;41205;44.264;19.884;2023-08-12T00:51:27;5.25;;;3.65;;
55328;SDS011;41205;44.264;19.884;2023-08-12T00:53:53;5.13;;;3.53;;
55328;SDS011;41205;44.264;19.884;2023-08-12T00:56:21;7.40;;;3.45;;
55328;SDS011;41205;44.264;19.884;2023-08-12T00:58:47;4.38;;;3.83;;
55328;SDS011;41205;44.264;19.884;2023-08-12T01:01:13;5.10;;;3.15;;
55328;SDS011;41205;44.264;19.884;2023-08-12T01:03:39;3.40;;;2.33;;
55328;SDS011;41205;44.264;19.884;2023-08-12T01:06:06;6.50;;;3.17;;
55328;SDS011;41205;44.264;19.884;2023-08-12T01:08:32;3.40;;;2.60;;
55328;SDS011;41205;44.264;19.884;2023-08-12T01:11:03;4.70;;;3.13;;
55328;SDS011;41205;44.264;19.884;2023-08-12T01:16:26;4.97;;;3.00;;
55328;SDS011;41205;44.264;19.884;2023-08-12T01:18:55;4.82;;;2.63;;
55328;SDS011;41205;44.264;19.884;2023-08-12T01:21:22;5.03;;;3.10;;
55328;SDS011;41205;44.264;19.884;2023-08-12T01:23:49;6.13;;;2.95;;
55328;SDS011;41205;44.264;19.884;2023-08-12T01:26:15;5.90;;;3.35;;
55328;SDS011;41205;44.264;19.884;2023-08-12T01:28:41;4.22;;;3.13;;
55328;SDS011;41205;44.264;19.884;2023-08-12T01:33:54;8.23;;;3.55;;
55328;SDS011;41205;44.264;19.884;2023-08-12T01:36:23;5.18;;;3.15;;
55328;SDS011;41205;44.264;19.884;2023-08-12T01:38:51;6.15;;;3.38;;
55328;SDS011;41205;44.264;19.884;2023-08-12T01:41:21;5.60;;;3.42;;
55328;SDS011;41205;44.264;19.884;2023-08-12T01:43:48;4.95;;;3.13;;
55328;SDS011;41205;44.264;19.884;2023-08-12T01:46:14;6.10;;;3.47;;
55328;SDS011;41205;44.264;19.884;2023-08-12T01:48:42;3.83;;;2.88;;
55328;SDS011;41205;44.264;19.884;2023-08-12T01:51:07;4.25;;;3.55;;
55328;SDS011;41205;44.264;19.884;2023-08-12T01:53:33;4.80;;;3.05;;
55328;SDS011;41205;44.264;19.884;2023-08-12T01:55:59;6.13;;;3.03;;
55328;SDS011;41205;44.264;19.884;2023-08-12T01:58:24;4.03;;;3.17;;
55328;SDS011;41205;44.264;19.884;2023-08-12T02:00:52;7.20;;;3.55;;
55328;SDS011;41205;44.264;19.884;2023-08-12T02:03:17;4.30;;;3.10;;
55328;SDS011;41205;44.264;19.884;2023-08-12T02:05:43;5.20;;;3.13;;
55328;SDS011;41205;44.264;19.884;2023-08-12T02:08:09;10.68;;;4.00;;
55328;SDS011;41205;44.264;19.884;2023-08-12T02:10:35;6.32;;;3.30;;
55328;SDS011;41205;44.264;19.884;2023-08-12T02:13:00;5.88;;;3.60;;
55328;SDS011;41205;44.264;19.884;2023-08-12T02:15:28;6.72;;;3.80;;
55328;SDS011;41205;44.264;19.884;2023-08-12T02:17:53;6.90;;;3.28;;
55328;SDS011;41205;44.264;19.884;2023-08-12T02:20:19;4.90;;;3.10;;
55328;SDS011;41205;44.264;19.884;2023-08-12T02:22:45;4.65;;;3.30;;
55328;SDS011;41205;44.264;19.884;2023-08-12T02:25:11;4.68;;;3.33;;
55328;SDS011;41205;44.264;19.884;2023-08-12T02:27:36;4.75;;;2.90;;
55328;SDS011;41205;44.264;19.884;2023-08-12T02:30:02;3.92;;;3.13;;
55328;SDS011;41205;44.264;19.884;2023-08-12T02:32:29;4.97;;;3.65;;
55328;SDS011;41205;44.264;19.884;2023-08-12T02:34:54;5.88;;;3.03;;
55328;SDS011;41205;44.264;19.884;2023-08-12T02:37:20;5.63;;;3.75;;
55328;SDS011;41205;44.264;19.884;2023-08-12T02:39:47;4.63;;;3.45;;
55328;SDS011;41205;44.264;19.884;2023-08-12T02:42:12;4.95;;;3.40;;
55328;SDS011;41205;44.264;19.884;2023-08-12T02:44:38;5.88;;;3.63;;
55328;SDS011;41205;44.264;19.884;2023-08-12T02:47:04;5.72;;;3.60;;
55328;SDS011;41205;44.264;19.884;2023-08-12T02:49:29;6.75;;;3.88;;
55328;SDS011;41205;44.264;19.884;2023-08-12T02:51:55;4.95;;;2.75;;
55328;SDS011;41205;44.264;19.884;2023-08-12T02:54:21;5.70;;;3.72;;
55328;SDS011;41205;44.264;19.884;2023-08-12T02:56:47;6.90;;;3.60;;
55328;SDS011;41205;44.264;19.884;2023-08-12T02:59:12;8.10;;;3.70;;
55328;SDS011;41205;44.264;19.884;2023-08-12T03:01:40;4.38;;;2.80;;
55328;SDS011;41205;44.264;19.884;2023-08-12T03:04:07;6.70;;;3.00;;
55328;SDS011;41205;44.264;19.884;2023-08-12T03:06:32;5.05;;;3.42;;
55328;SDS011;41205;44.264;19.884;2023-08-12T03:08:58;4.80;;;3.42;;
55328;SDS011;41205;44.264;19.884;2023-08-12T03:11:24;4.47;;;3.15;;
55328;SDS011;41205;44.264;19.884;2023-08-12T03:13:49;4.40;;;3.03;;
55328;SDS011;41205;44.264;19.884;2023-08-12T03:16:15;6.53;;;3.28;;
55328;SDS011;41205;44.264;19.884;2023-08-12T03:18:41;4.65;;;3.00;;
55328;SDS011;41205;44.264;19.884;2023-08-12T03:21:07;5.82;;;2.85;;
55328;SDS011;41205;44.264;19.884;2023-08-12T03:23:35;4.80;;;3.17;;
55328;SDS011;41205;44.264;19.884;2023-08-12T03:26:01;4.68;;;3.25;;
55328;SDS011;41205;44.264;19.884;2023-08-12T03:28:28;5.63;;;3.22;;
55328;SDS011;41205;44.264;19.884;2023-08-12T03:30:54;5.93;;;3.30;;
55328;SDS011;41205;44.264;19.884;2023-08-12T03:33:20;6.38;;;3.63;;
55328;SDS011;41205;44.264;19.884;2023-08-12T03:35:46;5.30;;;3.53;;
55328;SDS011;41205;44.264;19.884;2023-08-12T03:38:12;5.28;;;3.35;;
55328;SDS011;41205;44.264;19.884;2023-08-12T03:40:38;6.43;;;3.20;;
55328;SDS011;41205;44.264;19.884;2023-08-12T03:43:05;4.25;;;2.95;;
55328;SDS011;41205;44.264;19.884;2023-08-12T03:45:30;5.55;;;3.60;;
55328;SDS011;41205;44.264;19.884;2023-08-12T03:47:56;7.13;;;3.13;;
55328;SDS011;41205;44.264;19.884;2023-08-12T03:50:21;13.75;;;3.42;;
55328;SDS011;41205;44.264;19.884;2023-08-12T03:52:47;5.47;;;3.83;;
55328;SDS011;41205;44.264;19.884;2023-08-12T03:55:13;5.43;;;3.75;;
55328;SDS011;41205;44.264;19.884;2023-08-12T03:57:39;6.43;;;3.38;;
55328;SDS011;41205;44.264;19.884;2023-08-12T04:00:05;5.00;;;3.63;;
55328;SDS011;41205;44.264;19.884;2023-08-12T04:02:33;4.65;;;3.58;;
55328;SDS011;41205;44.264;19.884;2023-08-12T04:04:59;4.63;;;3.78;;
55328;SDS011;41205;44.264;19.884;2023-08-12T04:07:25;5.45;;;3.67;;
55328;SDS011;41205;44.264;19.884;2023-08-12T04:09:52;6.70;;;3.10;;
55328;SDS011;41205;44.264;19.884;2023-08-12T04:12:17;7.07;;;3.53;;
55328;SDS011;41205;44.264;19.884;2023-08-12T04:14:43;4.82;;;3.45;;
55328;SDS011;41205;44.264;19.884;2023-08-12T04:17:09;5.05;;;3.30;;
55328;SDS011;41205;44.264;19.884;2023-08-12T04:19:35;4.03;;;3.10;;
55328;SDS011;41205;44.264;19.884;2023-08-12T04:22:00;6.47;;;3.70;;
55328;SDS011;41205;44.264;19.884;2023-08-12T04:24:26;6.18;;;3.63;;
55328;SDS011;41205;44.264;19.884;2023-08-12T04:26:52;5.60;;;4.50;;
55328;SDS011;41205;44.264;19.884;2023-08-12T04:29:17;7.10;;;3.72;;
55328;SDS011;41205;44.264;19.884;2023-08-12T04:31:43;6.82;;;3.67;;
55328;SDS011;41205;44.264;19.884;2023-08-12T04:34:08;6.55;;;4.18;;
55328;SDS011;41205;44.264;19.884;2023-08-12T04:36:34;4.65;;;3.55;;
55328;SDS011;41205;44.264;19.884;2023-08-12T04:39:00;6.63;;;3.92;;
55328;SDS011;41205;44.264;19.884;2023-08-12T04:41:26;8.98;;;4.43;;
55328;SDS011;41205;44.264;19.884;2023-08-12T04:43:51;5.57;;;3.70;;
55328;SDS011;41205;44.264;19.884;2023-08-12T04:46:17;6.30;;;3.83;;
55328;SDS011;41205;44.264;19.884;2023-08-12T04:48:43;4.97;;;3.78;;
55328;SDS011;41205;44.264;19.884;2023-08-12T04:51:08;6.70;;;3.88;;
55328;SDS011;41205;44.264;19.884;2023-08-12T04:53:35;5.25;;;3.47;;
55328;SDS011;41205;44.264;19.884;2023-08-12T04:56:00;6.03;;;4.43;;
55328;SDS011;41205;44.264;19.884;2023-08-12T04:58:27;5.10;;;3.63;;
55328;SDS011;41205;44.264;19.884;2023-08-12T05:00:52;6.55;;;4.22;;
55328;SDS011;41205;44.264;19.884;2023-08-12T05:03:18;4.63;;;3.53;;
55328;SDS011;41205;44.264;19.884;2023-08-12T05:05:47;4.47;;;3.13;;
55328;SDS011;41205;44.264;19.884;2023-08-12T05:08:17;6.03;;;3.25;;
55328;SDS011;41205;44.264;19.884;2023-08-12T05:10:43;5.43;;;3.55;;
55328;SDS011;41205;44.264;19.884;2023-08-12T05:13:08;4.70;;;3.53;;
55328;SDS011;41205;44.264;19.884;2023-08-12T05:15:34;4.45;;;3.53;;
55328;SDS011;41205;44.264;19.884;2023-08-12T05:18:02;4.10;;;3.20;;
55328;SDS011;41205;44.264;19.884;2023-08-12T05:20:28;4.78;;;4.28;;
55328;SDS011;41205;44.264;19.884;2023-08-12T05:22:53;5.72;;;4.68;;
55328;SDS011;41205;44.264;19.884;2023-08-12T05:25:19;6.68;;;4.57;;
55328;SDS011;41205;44.264;19.884;2023-08-12T05:27:45;9.35;;;4.57;;
55328;SDS011;41205;44.264;19.884;2023-08-12T05:30:10;5.00;;;4.50;;
55328;SDS011;41205;44.264;19.884;2023-08-12T05:32:36;6.72;;;4.63;;
55328;SDS011;41205;44.264;19.884;2023-08-12T05:35:02;8.18;;;4.47;;
55328;SDS011;41205;44.264;19.884;2023-08-12T05:37:28;6.13;;;5.18;;
55328;SDS011;41205;44.264;19.884;2023-08-12T05:39:54;5.43;;;4.55;;
55328;SDS011;41205;44.264;19.884;2023-08-12T05:42:19;5.75;;;5.15;;
55328;SDS011;41205;44.264;19.884;2023-08-12T05:44:45;6.15;;;5.05;;
55328;SDS011;41205;44.264;19.884;2023-08-12T05:47:11;7.28;;;5.75;;
55328;SDS011;41205;44.264;19.884;2023-08-12T05:49:36;6.70;;;6.00;;
55328;SDS011;41205;44.264;19.884;2023-08-12T05:52:02;6.05;;;5.20;;
55328;SDS011;41205;44.264;19.884;2023-08-12T05:54:28;10.30;;;5.75;;
55328;SDS011;41205;44.264;19.884;2023-08-12T05:56:54;11.43;;;6.63;;
55328;SDS011;41205;44.264;19.884;2023-08-12T05:59:21;11.07;;;7.03;;
55328;SDS011;41205;44.264;19.884;2023-08-12T06:01:46;7.80;;;6.18;;
55328;SDS011;41205;44.264;19.884;2023-08-12T06:04:12;8.50;;;6.03;;
55328;SDS011;41205;44.264;19.884;2023-08-12T06:06:38;9.88;;;7.00;;
55328;SDS011;41205;44.264;19.884;2023-08-12T06:09:04;8.05;;;5.68;;
55328;SDS011;41205;44.264;19.884;2023-08-12T06:11:30;6.80;;;6.20;;
55328;SDS011;41205;44.264;19.884;2023-08-12T06:13:55;7.13;;;6.53;;
55328;SDS011;41205;44.264;19.884;2023-08-12T06:16:21;7.15;;;6.35;;
55328;SDS011;41205;44.264;19.884;2023-08-12T06:18:47;6.95;;;6.25;;
55328;SDS011;41205;44.264;19.884;2023-08-12T06:21:12;8.15;;;6.10;;
55328;SDS011;41205;44.264;19.884;2023-08-12T06:23:38;6.97;;;6.35;;
55328;SDS011;41205;44.264;19.884;2023-08-12T06:26:04;6.75;;;6.15;;
55328;SDS011;41205;44.264;19.884;2023-08-12T06:28:29;7.13;;;6.53;;
55328;SDS011;41205;44.264;19.884;2023-08-12T06:30:55;7.30;;;6.60;;
55328;SDS011;41205;44.264;19.884;2023-08-12T06:33:21;7.40;;;6.80;;
55328;SDS011;41205;44.264;19.884;2023-08-12T06:35:46;7.22;;;6.63;;
55328;SDS011;41205;44.264;19.884;2023-08-12T06:38:12;7.68;;;6.60;;
55328;SDS011;41205;44.264;19.884;2023-08-12T06:40:38;7.43;;;6.82;;
55328;SDS011;41205;44.264;19.884;2023-08-12T06:43:04;7.70;;;7.18;;
55328;SDS011;41205;44.264;19.884;2023-08-12T06:45:33;7.28;;;6.57;;
55328;SDS011;41205;44.264;19.884;2023-08-12T06:47:59;7.60;;;6.90;;
55328;SDS011;41205;44.264;19.884;2023-08-12T06:50:27;7.72;;;7.22;;
55328;SDS011;41205;44.264;19.884;2023-08-12T06:52:53;8.27;;;7.57;;
55328;SDS011;41205;44.264;19.884;2023-08-12T06:55:18;8.25;;;7.55;;
55328;SDS011;41205;44.264;19.884;2023-08-12T06:57:44;7.90;;;7.32;;
55328;SDS011;41205;44.264;19.884;2023-08-12T07:00:10;7.95;;;7.35;;
55328;SDS011;41205;44.264;19.884;2023-08-12T07:02:36;8.05;;;7.40;;
55328;SDS011;41205;44.264;19.884;2023-08-12T07:05:02;7.25;;;6.68;;
55328;SDS011;41205;44.264;19.884;2023-08-12T07:07:28;8.48;;;7.80;;
55328;SDS011;41205;44.264;19.884;2023-08-12T07:09:54;7.15;;;6.68;;
55328;SDS011;41205;44.264;19.884;2023-08-12T07:12:19;8.80;;;8.05;;
55328;SDS011;41205;44.264;19.884;2023-08-12T07:14:45;8.45;;;7.65;;
55328;SDS011;41205;44.264;19.884;2023-08-12T07:17:11;8.73;;;8.10;;
55328;SDS011;41205;44.264;19.884;2023-08-12T07:19:36;9.82;;;8.60;;
55328;SDS011;41205;44.264;19.884;2023-08-12T07:22:02;9.02;;;8.32;;
55328;SDS011;41205;44.264;19.884;2023-08-12T07:24:28;8.93;;;8.25;;
55328;SDS011;41205;44.264;19.884;2023-08-12T07:26:54;9.27;;;7.78;;
55328;SDS011;41205;44.264;19.884;2023-08-12T07:29:20;9.23;;;8.63;;
55328;SDS011;41205;44.264;19.884;2023-08-12T07:31:46;9.25;;;8.65;;
55328;SDS011;41205;44.264;19.884;2023-08-12T07:34:12;9.90;;;9.20;;
55328;SDS011;41205;44.264;19.884;2023-08-12T07:36:38;9.30;;;8.55;;
55328;SDS011;41205;44.264;19.884;2023-08-12T07:39:05;10.40;;;9.70;;
55328;SDS011;41205;44.264;19.884;2023-08-12T07:41:31;10.00;;;9.20;;
55328;SDS011;41205;44.264;19.884;2023-08-12T07:43:57;10.40;;;9.60;;
55328;SDS011;41205;44.264;19.884;2023-08-12T07:46:23;10.63;;;9.90;;
55328;SDS011;41205;44.264;19.884;2023-08-12T07:48:48;10.23;;;9.38;;
55328;SDS011;41205;44.264;19.884;2023-08-12T07:51:14;10.48;;;9.57;;
55328;SDS011;41205;44.264;19.884;2023-08-12T07:53:40;10.52;;;9.82;;
55328;SDS011;41205;44.264;19.884;2023-08-12T07:56:07;10.27;;;9.40;;
55328;SDS011;41205;44.264;19.884;2023-08-12T07:58:33;11.52;;;10.57;;
55328;SDS011;41205;44.264;19.884;2023-08-12T08:00:59;11.82;;;10.80;;
55328;SDS011;41205;44.264;19.884;2023-08-12T08:03:25;10.90;;;9.80;;
55328;SDS011;41205;44.264;19.884;2023-08-12T08:05:50;11.00;;;10.05;;
55328;SDS011;41205;44.264;19.884;2023-08-12T08:08:17;10.48;;;9.77;;
55328;SDS011;41205;44.264;19.884;2023-08-12T08:10:43;10.93;;;10.23;;
55328;SDS011;41205;44.264;19.884;2023-08-12T08:13:09;11.48;;;10.77;;
55328;SDS011;41205;44.264;19.884;2023-08-12T08:15:34;11.10;;;10.27;;
55328;SDS011;41205;44.264;19.884;2023-08-12T08:18:00;12.02;;;11.05;;
55328;SDS011;41205;44.264;19.884;2023-08-12T08:20:29;11.40;;;10.48;;
55328;SDS011;41205;44.264;19.884;2023-08-12T08:22:55;10.90;;;10.10;;
55328;SDS011;41205;44.264;19.884;2023-08-12T08:25:20;10.60;;;9.80;;
55328;SDS011;41205;44.264;19.884;2023-08-12T08:27:46;10.95;;;10.15;;
55328;SDS011;41205;44.264;19.884;2023-08-12T08:30:12;10.35;;;9.50;;
55328;SDS011;41205;44.264;19.884;2023-08-12T08:32:38;10.43;;;9.60;;
55328;SDS011;41205;44.264;19.884;2023-08-12T08:35:04;9.95;;;9.35;;
55328;SDS011;41205;44.264;19.884;2023-08-12T08:37:30;9.15;;;8.55;;
55328;SDS011;41205;44.264;19.884;2023-08-12T08:39:55;7.93;;;7.05;;
55328;SDS011;41205;44.264;19.884;2023-08-12T08:42:21;7.13;;;6.53;;
55328;SDS011;41205;44.264;19.884;2023-08-12T08:44:48;8.07;;;5.32;;
55328;SDS011;41205;44.264;19.884;2023-08-12T08:47:18;5.97;;;5.05;;
55328;SDS011;41205;44.264;19.884;2023-08-12T08:49:45;5.57;;;5.07;;
55328;SDS011;41205;44.264;19.884;2023-08-12T08:52:12;5.72;;;5.18;;
55328;SDS011;41205;44.264;19.884;2023-08-12T08:54:37;6.32;;;5.45;;
55328;SDS011;41205;44.264;19.884;2023-08-12T08:57:04;6.18;;;5.57;;
55328;SDS011;41205;44.264;19.884;2023-08-12T08:59:31;6.38;;;5.18;;
55328;SDS011;41205;44.264;19.884;2023-08-12T09:01:56;6.55;;;5.43;;
55328;SDS011;41205;44.264;19.884;2023-08-12T09:04:23;6.45;;;5.50;;
55328;SDS011;41205;44.264;19.884;2023-08-12T09:06:50;6.13;;;5.15;;
55328;SDS011;41205;44.264;19.884;2023-08-12T09:09:17;6.70;;;4.78;;
55328;SDS011;41205;44.264;19.884;2023-08-12T09:11:45;6.07;;;5.13;;
55328;SDS011;41205;44.264;19.884;2023-08-12T09:14:11;6.18;;;4.78;;
55328;SDS011;41205;44.264;19.884;2023-08-12T09:16:38;5.68;;;5.15;;
55328;SDS011;41205;44.264;19.884;2023-08-12T09:19:04;5.15;;;4.65;;
55328;SDS011;41205;44.264;19.884;2023-08-12T09:21:30;6.43;;;4.57;;
55328;SDS011;41205;44.264;19.884;2023-08-12T09:23:56;6.30;;;4.82;;
55328;SDS011;41205;44.264;19.884;2023-08-12T09:26:21;5.43;;;4.93;;
55328;SDS011;41205;44.264;19.884;2023-08-12T09:28:47;8.38;;;5.70;;
55328;SDS011;41205;44.264;19.884;2023-08-12T09:31:26;6.72;;;5.40;;
55328;SDS011;41205;44.264;19.884;2023-08-12T09:33:57;6.82;;;5.13;;
55328;SDS011;41205;44.264;19.884;2023-08-12T09:36:24;6.47;;;4.35;;
55328;SDS011;41205;44.264;19.884;2023-08-12T09:38:52;7.65;;;4.32;;
55328;SDS011;41205;44.264;19.884;2023-08-12T09:41:19;5.15;;;4.65;;
55328;SDS011;41205;44.264;19.884;2023-08-12T09:43:47;5.10;;;4.25;;
55328;SDS011;41205;44.264;19.884;2023-08-12T09:46:13;5.60;;;4.88;;
55328;SDS011;41205;44.264;19.884;2023-08-12T09:48:39;8.45;;;5.30;;
55328;SDS011;41205;44.264;19.884;2023-08-12T09:51:05;6.68;;;4.85;;
55328;SDS011;41205;44.264;19.884;2023-08-12T09:53:32;5.68;;;4.28;;
55328;SDS011;41205;44.264;19.884;2023-08-12T09:55:59;5.35;;;4.25;;
55328;SDS011;41205;44.264;19.884;2023-08-12T09:58:31;6.68;;;4.97;;
55328;SDS011;41205;44.264;19.884;2023-08-12T10:00:58;5.43;;;4.93;;
55328;SDS011;41205;44.264;19.884;2023-08-12T10:03:26;7.60;;;5.57;;
55328;SDS011;41205;44.264;19.884;2023-08-12T10:05:53;6.90;;;4.57;;
55328;SDS011;41205;44.264;19.884;2023-08-12T10:08:20;5.70;;;5.20;;
55328;SDS011;41205;44.264;19.884;2023-08-12T10:10:46;5.65;;;4.72;;
55328;SDS011;41205;44.264;19.884;2023-08-12T10:13:11;6.53;;;5.45;;
55328;SDS011;41205;44.264;19.884;2023-08-12T10:15:37;5.78;;;4.55;;
55328;SDS011;41205;44.264;19.884;2023-08-12T10:18:04;8.27;;;5.18;;
55328;SDS011;41205;44.264;19.884;2023-08-12T10:20:31;8.40;;;4.95;;
55328;SDS011;41205;44.264;19.884;2023-08-12T10:22:57;6.57;;;4.30;;
55328;SDS011;41205;44.264;19.884;2023-08-12T10:25:25;7.82;;;5.25;;
55328;SDS011;41205;44.264;19.884;2023-08-12T10:27:57;7.20;;;4.93;;
55328;SDS011;41205;44.264;19.884;2023-08-12T10:30:23;9.65;;;5.18;;
55328;SDS011;41205;44.264;19.884;2023-08-12T10:32:49;8.45;;;5.20;;
55328;SDS011;41205;44.264;19.884;2023-08-12T10:35:15;6.10;;;5.18;;
55328;SDS011;41205;44.264;19.884;2023-08-12T10:37:41;5.45;;;4.95;;
55328;SDS011;41205;44.264;19.884;2023-08-12T10:40:19;6.85;;;5.22;;
55328;SDS011;41205;44.264;19.884;2023-08-12T10:42:47;4.97;;;4.45;;
55328;SDS011;41205;44.264;19.884;2023-08-12T10:45:15;4.95;;;4.45;;
55328;SDS011;41205;44.264;19.884;2023-08-12T10:50:22;6.75;;;4.28;;
55328;SDS011;41205;44.264;19.884;2023-08-12T10:52:53;5.05;;;4.32;;
55328;SDS011;41205;44.264;19.884;2023-08-12T10:55:23;5.78;;;4.10;;
55328;SDS011;41205;44.264;19.884;2023-08-12T10:57:53;6.45;;;4.55;;
55328;SDS011;41205;44.264;19.884;2023-08-12T11:00:23;5.95;;;5.35;;
55328;SDS011;41205;44.264;19.884;2023-08-12T11:02:56;8.73;;;4.13;;
55328;SDS011;41205;44.264;19.884;2023-08-12T11:05:22;5.63;;;4.15;;
55328;SDS011;41205;44.264;19.884;2023-08-12T11:07:59;6.65;;;3.70;;
55328;SDS011;41205;44.264;19.884;2023-08-12T11:10:31;4.90;;;4.05;;
55328;SDS011;41205;44.264;19.884;2023-08-12T11:12:58;6.88;;;4.72;;
55328;SDS011;41205;44.264;19.884;2023-08-12T11:15:30;7.18;;;4.10;;
55328;SDS011;41205;44.264;19.884;2023-08-12T11:17:59;6.30;;;4.10;;
55328;SDS011;41205;44.264;19.884;2023-08-12T11:20:32;4.70;;;3.88;;
55328;SDS011;41205;44.264;19.884;2023-08-12T11:22:58;4.72;;;4.00;;
55328;SDS011;41205;44.264;19.884;2023-08-12T11:25:25;5.22;;;4.35;;
55328;SDS011;41205;44.264;19.884;2023-08-12T11:27:53;7.22;;;4.03;;
55328;SDS011;41205;44.264;19.884;2023-08-12T11:30:19;8.18;;;4.43;;
55328;SDS011;41205;44.264;19.884;2023-08-12T11:32:47;5.35;;;4.43;;
55328;SDS011;41205;44.264;19.884;2023-08-12T11:35:17;5.90;;;4.40;;
55328;SDS011;41205;44.264;19.884;2023-08-12T11:37:48;7.47;;;4.47;;
55328;SDS011;41205;44.264;19.884;2023-08-12T11:40:16;5.97;;;4.47;;
55328;SDS011;41205;44.264;19.884;2023-08-12T11:42:43;7.97;;;4.88;;
55328;SDS011;41205;44.264;19.884;2023-08-12T11:45:11;5.28;;;4.05;;
55328;SDS011;41205;44.264;19.884;2023-08-12T11:47:38;6.00;;;4.07;;
55328;SDS011;41205;44.264;19.884;2023-08-12T11:50:05;6.75;;;4.53;;
55328;SDS011;41205;44.264;19.884;2023-08-12T11:52:33;5.35;;;4.55;;
55328;SDS011;41205;44.264;19.884;2023-08-12T11:55:00;4.90;;;4.25;;
55328;SDS011;41205;44.264;19.884;2023-08-12T11:57:26;7.20;;;4.22;;
55328;SDS011;41205;44.264;19.884;2023-08-12T11:59:58;7.38;;;4.22;;
55328;SDS011;41205;44.264;19.884;2023-08-12T12:02:25;4.57;;;3.65;;
55328;SDS011;41205;44.264;19.884;2023-08-12T12:04:51;4.97;;;3.95;;
55328;SDS011;41205;44.264;19.884;2023-08-12T12:07:23;4.82;;;3.80;;
55328;SDS011;41205;44.264;19.884;2023-08-12T12:09:53;6.25;;;3.95;;
55328;SDS011;41205;44.264;19.884;2023-08-12T12:12:21;5.78;;;3.90;;
55328;SDS011;41205;44.264;19.884;2023-08-12T12:14:50;5.18;;;4.60;;
55328;SDS011;41205;44.264;19.884;2023-08-12T12:17:23;4.93;;;3.97;;
55328;SDS011;41205;44.264;19.884;2023-08-12T12:19:56;6.40;;;4.03;;
55328;SDS011;41205;44.264;19.884;2023-08-12T12:22:27;8.20;;;4.32;;
55328;SDS011;41205;44.264;19.884;2023-08-12T12:24:58;5.10;;;3.72;;
55328;SDS011;41205;44.264;19.884;2023-08-12T12:27:25;6.57;;;4.00;;
55328;SDS011;41205;44.264;19.884;2023-08-12T12:29:51;5.28;;;3.78;;
55328;SDS011;41205;44.264;19.884;2023-08-12T12:32:20;6.75;;;4.03;;
55328;SDS011;41205;44.264;19.884;2023-08-12T12:34:46;6.85;;;4.55;;
55328;SDS011;41205;44.264;19.884;2023-08-12T12:37:13;7.88;;;4.68;;
55328;SDS011;41205;44.264;19.884;2023-08-12T12:39:39;6.82;;;4.32;;
55328;SDS011;41205;44.264;19.884;2023-08-12T12:42:05;5.05;;;4.50;;
55328;SDS011;41205;44.264;19.884;2023-08-12T12:44:31;4.85;;;4.20;;
55328;SDS011;41205;44.264;19.884;2023-08-12T12:46:57;4.93;;;3.88;;
55328;SDS011;41205;44.264;19.884;2023-08-12T12:49:23;4.38;;;3.97;;
55328;SDS011;41205;44.264;19.884;2023-08-12T12:51:49;5.93;;;4.50;;
55328;SDS011;41205;44.264;19.884;2023-08-12T12:54:14;6.65;;;4.13;;
55328;SDS011;41205;44.264;19.884;2023-08-12T12:56:40;4.95;;;4.07;;
55328;SDS011;41205;44.264;19.884;2023-08-12T12:59:06;4.78;;;4.10;;
55328;SDS011;41205;44.264;19.884;2023-08-12T13:01:32;5.68;;;3.58;;
55328;SDS011;41205;44.264;19.884;2023-08-12T13:03:58;5.50;;;4.18;;
55328;SDS011;41205;44.264;19.884;2023-08-12T13:06:23;5.75;;;3.90;;
55328;SDS011;41205;44.264;19.884;2023-08-12T13:08:49;5.85;;;3.88;;
55328;SDS011;41205;44.264;19.884;2023-08-12T13:11:15;6.00;;;3.90;;
55328;SDS011;41205;44.264;19.884;2023-08-12T13:13:41;5.22;;;4.28;;
55328;SDS011;41205;44.264;19.884;2023-08-12T13:16:07;6.80;;;4.63;;
55328;SDS011;41205;44.264;19.884;2023-08-12T13:18:35;5.05;;;3.55;;
55328;SDS011;41205;44.264;19.884;2023-08-12T13:21:01;5.63;;;4.00;;
55328;SDS011;41205;44.264;19.884;2023-08-12T13:23:26;4.60;;;3.92;;
55328;SDS011;41205;44.264;19.884;2023-08-12T13:25:52;4.88;;;3.25;;
55328;SDS011;41205;44.264;19.884;2023-08-12T13:28:18;4.32;;;3.92;;
55328;SDS011;41205;44.264;19.884;2023-08-12T13:30:45;4.28;;;3.83;;
55328;SDS011;41205;44.264;19.884;2023-08-12T13:33:11;5.38;;;3.80;;
55328;SDS011;41205;44.264;19.884;2023-08-12T13:35:37;7.22;;;4.47;;
55328;SDS011;41205;44.264;19.884;2023-08-12T13:38:02;5.47;;;4.25;;
55328;SDS011;41205;44.264;19.884;2023-08-12T13:40:28;4.72;;;3.65;;
55328;SDS011;41205;44.264;19.884;2023-08-12T13:42:54;5.15;;;3.97;;
55328;SDS011;41205;44.264;19.884;2023-08-12T13:45:20;8.48;;;3.88;;
55328;SDS011;41205;44.264;19.884;2023-08-12T13:47:46;5.07;;;3.58;;
55328;SDS011;41205;44.264;19.884;2023-08-12T13:50:11;5.10;;;4.03;;
55328;SDS011;41205;44.264;19.884;2023-08-12T13:52:38;4.70;;;3.95;;
55328;SDS011;41205;44.264;19.884;2023-08-12T13:55:04;5.43;;;4.28;;
55328;SDS011;41205;44.264;19.884;2023-08-12T13:57:30;4.80;;;3.83;;
55328;SDS011;41205;44.264;19.884;2023-08-12T13:59:56;6.03;;;4.63;;
55328;SDS011;41205;44.264;19.884;2023-08-12T14:02:22;4.72;;;3.60;;
55328;SDS011;41205;44.264;19.884;2023-08-12T14:04:49;6.13;;;3.90;;
55328;SDS011;41205;44.264;19.884;2023-08-12T14:07:15;4.85;;;3.67;;
55328;SDS011;41205;44.264;19.884;2023-08-12T14:09:41;5.05;;;4.05;;
55328;SDS011;41205;44.264;19.884;2023-08-12T14:12:07;5.30;;;4.05;;
55328;SDS011;41205;44.264;19.884;2023-08-12T14:14:32;4.53;;;3.40;;
55328;SDS011;41205;44.264;19.884;2023-08-12T14:16:58;4.38;;;3.58;;
55328;SDS011;41205;44.264;19.884;2023-08-12T14:19:24;7.13;;;4.07;;
55328;SDS011;41205;44.264;19.884;2023-08-12T14:21:50;6.75;;;3.95;;
55328;SDS011;41205;44.264;19.884;2023-08-12T14:24:15;4.78;;;4.07;;
55328;SDS011;41205;44.264;19.884;2023-08-12T14:26:41;9.02;;;4.07;;
55328;SDS011;41205;44.264;19.884;2023-08-12T14:29:07;5.28;;;3.92;;
55328;SDS011;41205;44.264;19.884;2023-08-12T14:31:33;4.70;;;3.38;;
55328;SDS011;41205;44.264;19.884;2023-08-12T14:33:59;5.80;;;4.78;;
55328;SDS011;41205;44.264;19.884;2023-08-12T14:36:26;5.32;;;3.85;;